createdAt,value
2023-03-05T00:00:20.967Z,26.33
2023-03-05T00:03:14.270Z,27.10
2023-03-05T00:05:47.416Z,25.05
2023-03-05T00:08:19.991Z,23.97
2023-03-05T00:10:58.570Z,24.00
2023-03-05T00:13:31.209Z,23.70
2023-03-05T00:16:05.735Z,24.45
2023-03-05T00:18:38.894Z,23.90
2023-03-05T00:21:19.795Z,23.87
2023-03-05T00:23:52.642Z,22.00
2023-03-05T00:26:27.057Z,21.70
2023-03-05T00:28:59.847Z,25.45
2023-03-05T00:31:34.273Z,22.50
2023-03-05T00:34:08.160Z,23.15
2023-03-05T00:36:43.203Z,26.45
2023-03-05T00:39:16.160Z,24.25
2023-03-05T00:41:49.478Z,24.65
2023-03-05T00:44:22.679Z,23.30
2023-03-05T00:46:55.857Z,25.40
2023-03-05T00:49:28.634Z,23.37
2023-03-05T00:52:00.567Z,22.80
2023-03-05T00:54:33.580Z,25.27
2023-03-05T00:57:06.824Z,25.85
2023-03-05T00:59:39.212Z,25.10
2023-03-05T01:02:11.535Z,25.73
2023-03-05T01:04:47.512Z,27.93
2023-03-05T01:07:21.166Z,34.40
2023-03-05T01:09:53.933Z,31.85
2023-03-05T01:12:26.708Z,32.00
2023-03-05T01:14:59.285Z,32.83
2023-03-05T01:17:32.068Z,31.10
2023-03-05T01:20:05.501Z,29.43
2023-03-05T01:22:37.909Z,25.10
2023-03-05T01:25:12.485Z,24.95
2023-03-05T01:27:45.841Z,24.75
2023-03-05T01:30:19.025Z,24.95
2023-03-05T01:32:53.032Z,24.10
2023-03-05T01:35:26.501Z,24.40
2023-03-05T01:37:59.827Z,23.83
2023-03-05T01:40:32.603Z,23.87
2023-03-05T01:43:20.958Z,26.53
2023-03-05T01:46:10.789Z,24.45
2023-03-05T01:48:44.532Z,24.00
2023-03-05T01:51:17.317Z,26.10
2023-03-05T01:53:50.301Z,23.55
2023-03-05T01:56:23.280Z,24.65
2023-03-05T01:59:03.751Z,25.15
2023-03-05T02:01:40.219Z,23.30
2023-03-05T02:04:15.137Z,25.17
2023-03-05T02:06:48.550Z,25.30
2023-03-05T02:09:23.559Z,23.73
2023-03-05T02:11:57.378Z,25.25
2023-03-05T02:14:30.149Z,24.60
2023-03-05T02:17:02.726Z,24.07
2023-03-05T02:19:49.093Z,24.93
2023-03-05T02:22:23.708Z,26.35
2023-03-05T02:24:58.271Z,24.90
2023-03-05T02:27:35.363Z,24.10
2023-03-05T02:30:10.346Z,24.65
2023-03-05T02:32:43.593Z,24.65
2023-03-05T02:35:16.555Z,25.35
2023-03-05T02:37:49.132Z,25.10
2023-03-05T02:40:22.322Z,24.75
2023-03-05T02:42:56.328Z,24.25
2023-03-05T02:45:29.553Z,23.77
2023-03-05T02:48:02.502Z,25.80
2023-03-05T02:50:35.693Z,25.65
2023-03-05T02:53:08.679Z,24.20
2023-03-05T02:55:43.097Z,25.75
2023-03-05T02:58:15.878Z,26.83
2023-03-05T03:00:48.668Z,25.75
2023-03-05T03:03:21.300Z,26.25
2023-03-05T03:05:54.830Z,24.70
2023-03-05T03:08:28.021Z,25.65
2023-03-05T03:11:07.011Z,25.37
2023-03-05T03:13:39.523Z,26.10
2023-03-05T03:16:13.732Z,25.45
2023-03-05T03:18:47.947Z,26.20
2023-03-05T03:21:21.555Z,26.67
2023-03-05T03:23:54.333Z,28.27
2023-03-05T03:26:26.901Z,27.45
2023-03-05T03:28:59.889Z,27.90
2023-03-05T03:31:32.669Z,28.45
2023-03-05T03:34:05.858Z,28.75
2023-03-05T03:36:38.846Z,28.55
2023-03-05T03:39:11.630Z,29.35
2023-03-05T03:41:44.664Z,30.65
2023-03-05T03:44:18.119Z,29.20
2023-03-05T03:46:51.684Z,29.33
2023-03-05T03:49:25.615Z,31.35
2023-03-05T03:51:58.389Z,29.67
2023-03-05T03:54:31.375Z,29.93
2023-03-05T03:57:04.975Z,32.15
2023-03-05T03:59:37.345Z,31.73
2023-03-05T04:02:10.147Z,30.83
2023-03-05T04:04:43.321Z,31.10
2023-03-05T04:07:16.507Z,31.70
2023-03-05T04:09:49.081Z,31.40
2023-03-05T04:14:52.395Z,30.07
2023-03-05T04:17:25.578Z,30.90
2023-03-05T04:19:58.155Z,29.93
2023-03-05T04:22:31.553Z,28.95
2023-03-05T04:25:06.942Z,31.35
2023-03-05T04:27:40.601Z,29.17
2023-03-05T04:30:15.294Z,30.57
2023-03-05T04:32:48.399Z,29.73
2023-03-05T04:35:22.264Z,29.57
2023-03-05T04:37:54.980Z,30.80
2023-03-05T04:40:27.765Z,30.10
2023-03-05T04:43:01.161Z,31.55
2023-03-05T04:45:34.012Z,30.50
2023-03-05T04:48:06.765Z,32.17
2023-03-05T04:50:39.911Z,31.17
2023-03-05T04:53:12.481Z,32.50
2023-03-05T04:55:45.466Z,33.95
2023-03-05T04:58:18.244Z,32.83
2023-03-05T05:00:51.230Z,30.97
2023-03-05T05:03:24.220Z,30.50
2023-03-05T05:06:01.289Z,32.45
2023-03-05T05:08:35.345Z,31.15
2023-03-05T05:11:09.580Z,32.07
2023-03-05T05:13:43.112Z,32.10
2023-03-05T05:16:16.749Z,30.85
2023-03-05T05:18:49.909Z,31.53
2023-03-05T05:21:23.092Z,32.47
2023-03-05T05:23:56.278Z,30.05
2023-03-05T05:26:29.473Z,31.25
2023-03-05T05:29:01.574Z,31.25
2023-03-05T05:31:34.230Z,32.15
2023-03-05T05:34:07.398Z,33.83
2023-03-05T05:36:40.591Z,32.17
2023-03-05T05:39:13.803Z,32.77
2023-03-05T05:41:46.970Z,31.57
2023-03-05T05:44:19.554Z,32.07
2023-03-05T05:46:52.535Z,33.87
2023-03-05T05:49:25.725Z,36.05
2023-03-05T05:51:59.336Z,35.33
2023-03-05T05:54:31.900Z,38.93
2023-03-05T05:57:04.702Z,39.80
2023-03-05T05:59:37.673Z,41.65
2023-03-05T06:02:12.762Z,39.95
2023-03-05T06:04:45.679Z,39.57
2023-03-05T06:07:18.888Z,40.85
2023-03-05T06:09:51.443Z,40.45
2023-03-05T06:12:24.316Z,45.40
2023-03-05T06:14:57.097Z,42.90
2023-03-05T06:17:31.045Z,40.17
2023-03-05T06:20:04.610Z,41.90
2023-03-05T06:22:39.119Z,40.45
2023-03-05T06:25:13.449Z,38.57
2023-03-05T06:27:46.026Z,41.57
2023-03-05T06:30:18.802Z,39.05
2023-03-05T06:32:52.400Z,37.15
2023-03-05T06:35:25.627Z,40.27
2023-03-05T06:37:58.780Z,42.90
2023-03-05T06:40:31.972Z,43.85
2023-03-05T06:43:05.977Z,40.63
2023-03-05T06:45:38.375Z,40.43
2023-03-05T06:48:11.964Z,37.10
2023-03-05T06:50:44.548Z,35.73
2023-03-05T06:55:48.652Z,31.93
2023-03-05T06:58:21.638Z,32.75
2023-03-05T07:00:55.056Z,34.50
2023-03-05T07:03:28.423Z,31.90
2023-03-05T07:06:03.467Z,32.55
2023-03-05T07:08:36.238Z,29.40
2023-03-05T07:11:12.942Z,30.15
2023-03-05T07:13:48.024Z,31.15
2023-03-05T07:16:21.845Z,30.87
2023-03-05T07:18:55.343Z,30.75
2023-03-05T07:21:28.747Z,32.27
2023-03-05T07:24:01.730Z,31.70
2023-03-05T07:26:34.916Z,29.50
2023-03-05T07:29:06.961Z,29.20
2023-03-05T07:31:39.659Z,28.47
2023-03-05T07:34:13.053Z,28.63
2023-03-05T07:36:45.423Z,27.05
2023-03-05T07:39:19.425Z,27.00
2023-03-05T07:41:53.241Z,27.70
2023-03-05T07:44:33.177Z,25.20
2023-03-05T07:47:06.262Z,24.75
2023-03-05T07:49:39.989Z,25.05
2023-03-05T07:52:12.749Z,24.00
2023-03-05T07:54:45.945Z,24.15
2023-03-05T07:57:18.527Z,23.97
2023-03-05T07:59:51.501Z,24.13
2023-03-05T08:02:24.764Z,24.15
2023-03-05T08:04:57.877Z,23.60
2023-03-05T08:07:31.887Z,24.00
2023-03-05T08:10:05.308Z,23.73
2023-03-05T08:12:39.289Z,23.70
2023-03-05T08:15:12.709Z,23.20
2023-03-05T08:17:45.260Z,24.45
2023-03-05T08:20:19.683Z,24.90
2023-03-05T08:22:52.867Z,24.17
2023-03-05T08:25:25.648Z,25.40
2023-03-05T08:27:58.223Z,24.05
2023-03-05T08:30:30.798Z,23.70
2023-03-05T08:33:03.791Z,23.80
2023-03-05T08:35:36.985Z,24.53
2023-03-05T08:38:09.755Z,24.43
2023-03-05T08:40:43.772Z,24.40
2023-03-05T08:43:16.543Z,25.25
2023-03-05T08:45:50.146Z,23.60
2023-03-05T08:48:22.924Z,23.47
2023-03-05T08:50:56.733Z,22.80
2023-03-05T08:53:30.122Z,24.27
2023-03-05T08:56:03.108Z,22.83
2023-03-05T08:58:35.569Z,22.53
2023-03-05T09:01:09.373Z,22.90
2023-03-05T09:03:43.100Z,21.70
2023-03-05T09:06:16.075Z,22.90
2023-03-05T09:08:49.273Z,21.43
2023-03-05T09:11:22.862Z,21.57
2023-03-05T09:13:55.435Z,20.87
2023-03-05T09:16:28.843Z,22.07
2023-03-05T09:19:01.817Z,20.27
2023-03-05T09:21:35.015Z,21.20
2023-03-05T09:24:08.545Z,21.43
2023-03-05T09:26:42.821Z,22.15
2023-03-05T09:29:15.134Z,20.17
2023-03-05T09:34:19.518Z,21.62
2023-03-05T09:36:52.709Z,21.10
2023-03-05T09:39:25.897Z,21.20
2023-03-05T09:42:05.167Z,20.82
2023-03-05T09:44:42.912Z,20.93
2023-03-05T09:47:26.564Z,21.07
2023-03-05T09:50:01.849Z,21.70
2023-03-05T09:52:37.411Z,20.62
2023-03-05T09:55:14.464Z,22.50
2023-03-05T09:57:50.658Z,20.80
2023-03-05T10:00:24.806Z,21.35
2023-03-05T10:03:00.764Z,21.25
2023-03-05T10:05:45.927Z,20.52
2023-03-05T10:08:22.516Z,20.85
2023-03-05T10:10:55.866Z,21.73
2023-03-05T10:13:31.676Z,21.48
2023-03-05T10:16:06.493Z,21.80
2023-03-05T10:18:42.959Z,21.05
2023-03-05T10:21:17.368Z,21.23
2023-03-05T10:24:05.711Z,22.02
2023-03-05T10:26:42.815Z,20.32
2023-03-05T10:29:21.706Z,20.92
2023-03-05T10:32:04.248Z,21.33
2023-03-05T10:34:56.355Z,22.13
2023-03-05T10:37:37.652Z,21.07
2023-03-05T10:40:13.740Z,19.60
2023-03-05T10:42:49.672Z,19.67
2023-03-05T10:45:22.908Z,21.27
2023-03-05T10:47:57.109Z,22.52
2023-03-05T10:50:31.056Z,21.33
2023-03-05T10:53:08.416Z,21.12
2023-03-05T10:55:41.122Z,20.85
2023-03-05T10:58:14.825Z,19.52
2023-03-05T11:01:01.508Z,18.15
2023-03-05T11:03:51.294Z,17.27
2023-03-05T11:06:31.680Z,18.55
2023-03-05T11:09:21.121Z,17.17
2023-03-05T11:12:13.435Z,18.42
2023-03-05T11:14:47.032Z,17.75
2023-03-05T11:17:29.002Z,17.77
2023-03-05T11:20:19.362Z,18.40
2023-03-05T11:23:05.755Z,18.12
2023-03-05T11:25:51.140Z,18.15
2023-03-05T11:28:32.952Z,17.98
2023-03-05T11:31:09.679Z,17.65
2023-03-05T11:33:55.477Z,17.95
2023-03-05T11:36:30.108Z,18.80
2023-03-05T11:39:11.485Z,18.40
2023-03-05T11:41:45.221Z,18.45
2023-03-05T11:44:19.061Z,19.27
2023-03-05T11:46:53.311Z,18.80
2023-03-05T11:49:27.321Z,18.82
2023-03-05T11:52:02.315Z,19.20
2023-03-05T11:54:37.357Z,18.77
2023-03-05T11:57:12.305Z,18.42
2023-03-05T11:59:45.615Z,17.35
2023-03-05T12:02:21.211Z,18.90
2023-03-05T12:04:54.452Z,19.70
2023-03-05T12:07:28.553Z,19.02
2023-03-05T12:10:02.471Z,18.25
2023-03-05T12:12:39.604Z,18.17
2023-03-05T12:15:29.193Z,18.27
2023-03-05T12:18:07.849Z,18.35
2023-03-05T12:20:44.977Z,18.48
2023-03-05T12:23:19.781Z,18.35
2023-03-05T12:25:53.088Z,17.48
2023-03-05T12:28:39.329Z,17.95
2023-03-05T12:31:27.268Z,19.30
2023-03-05T12:34:00.985Z,17.82
2023-03-05T12:36:39.860Z,18.73
2023-03-05T12:39:30.231Z,19.98
2023-03-05T12:42:02.673Z,18.35
2023-03-05T12:44:35.668Z,19.87
2023-03-05T12:47:20.248Z,19.20
2023-03-05T12:49:52.899Z,18.80
2023-03-05T12:52:27.998Z,18.55
2023-03-05T12:55:03.877Z,19.73
2023-03-05T12:57:36.565Z,20.02
2023-03-05T13:00:13.400Z,21.25
2023-03-05T13:02:47.457Z,21.15
2023-03-05T13:05:22.406Z,19.67
2023-03-05T13:07:55.050Z,20.95
2023-03-05T13:10:29.566Z,20.40
2023-03-05T13:13:03.079Z,20.65
2023-03-05T13:15:36.261Z,20.45
2023-03-05T13:18:15.461Z,21.25
2023-03-05T13:20:51.241Z,24.23
2023-03-05T13:23:25.056Z,22.77
2023-03-05T13:26:02.178Z,21.17
2023-03-05T13:28:35.310Z,21.52
2023-03-05T13:31:15.165Z,23.77
2023-03-05T13:33:55.072Z,21.77
2023-03-05T13:36:28.605Z,21.12
2023-03-05T13:39:04.289Z,22.37
2023-03-05T13:41:37.644Z,20.82
2023-03-05T13:44:21.931Z,21.77
2023-03-05T13:46:54.671Z,21.45
2023-03-05T13:49:29.339Z,22.70
2023-03-05T13:52:03.126Z,21.12
2023-03-05T13:54:35.675Z,21.55
2023-03-05T13:57:09.069Z,20.62
2023-03-05T13:59:42.876Z,22.75
2023-03-05T14:02:19.842Z,21.95
2023-03-05T14:04:52.810Z,22.58
2023-03-05T14:07:31.541Z,22.75
2023-03-05T14:10:06.103Z,23.02
2023-03-05T14:12:41.336Z,21.90
2023-03-05T14:15:24.828Z,22.67
2023-03-05T14:18:17.164Z,21.62
2023-03-05T14:23:28.758Z,21.27
2023-03-05T14:26:14.674Z,22.70
2023-03-05T14:28:51.546Z,22.48
2023-03-05T14:31:24.653Z,22.67
2023-03-05T14:34:02.344Z,21.40
2023-03-05T14:36:35.165Z,21.27
2023-03-05T14:39:09.136Z,24.40
2023-03-05T14:41:42.526Z,23.47
2023-03-05T14:44:17.367Z,22.82
2023-03-05T14:46:52.191Z,22.58
2023-03-05T14:49:24.968Z,22.40
2023-03-05T14:51:57.543Z,23.47
2023-03-05T14:54:33.782Z,22.35
2023-03-05T14:57:07.415Z,22.50
2023-03-05T14:59:39.775Z,22.48
2023-03-05T15:02:15.515Z,23.92
2023-03-05T15:04:48.410Z,22.62
2023-03-05T15:07:31.638Z,23.22
2023-03-05T15:10:04.626Z,24.18
2023-03-05T15:12:37.480Z,22.85
2023-03-05T15:15:12.789Z,22.05
2023-03-05T15:17:47.881Z,23.02
2023-03-05T15:20:20.498Z,24.35
2023-03-05T15:22:53.636Z,23.62
2023-03-05T15:25:28.931Z,24.70
2023-03-05T15:28:02.486Z,23.75
2023-03-05T15:30:37.155Z,22.93
2023-03-05T15:33:11.169Z,23.85
2023-03-05T15:35:44.668Z,23.42
2023-03-05T15:38:17.690Z,22.65
2023-03-05T15:40:51.085Z,24.52
2023-03-05T15:43:24.068Z,23.42
2023-03-05T15:45:56.481Z,23.90
2023-03-05T15:48:29.642Z,23.27
2023-03-05T15:51:02.205Z,25.20
2023-03-05T15:53:35.191Z,24.75
2023-03-05T15:56:09.683Z,23.73
2023-03-05T15:58:43.830Z,24.43
2023-03-05T16:01:19.544Z,26.52
2023-03-05T16:03:52.115Z,24.23
2023-03-05T16:06:25.516Z,21.68
2023-03-05T16:09:01.397Z,23.07
2023-03-05T16:11:35.378Z,23.42
2023-03-05T16:14:08.909Z,25.90
2023-03-05T16:16:42.098Z,25.37
2023-03-05T16:19:16.312Z,24.50
2023-03-05T16:21:48.886Z,25.45
2023-03-05T16:24:22.490Z,26.60
2023-03-05T16:26:55.885Z,24.98
2023-03-05T16:29:30.892Z,23.30
2023-03-05T16:32:05.566Z,22.82
2023-03-05T16:34:38.323Z,21.75
2023-03-05T16:37:10.901Z,24.18
2023-03-05T16:39:44.084Z,24.67
2023-03-05T16:42:17.685Z,24.27
2023-03-05T16:44:50.479Z,24.35
2023-03-05T16:47:23.661Z,23.77
2023-03-05T16:49:56.641Z,25.20
2023-03-05T16:52:30.035Z,25.37
2023-03-05T16:55:04.078Z,26.10
2023-03-05T16:57:37.440Z,25.23
2023-03-05T17:00:12.990Z,25.17
2023-03-05T17:02:46.071Z,26.60
2023-03-05T17:05:19.260Z,25.30
2023-03-05T17:07:53.056Z,26.93
2023-03-05T17:10:27.282Z,26.25
2023-03-05T17:13:01.306Z,25.75
2023-03-05T17:15:34.294Z,25.60
2023-03-05T17:18:08.347Z,26.20
2023-03-05T17:20:41.674Z,29.03
2023-03-05T17:23:14.861Z,31.93
2023-03-05T17:25:48.052Z,31.93
2023-03-05T17:28:21.448Z,37.60
2023-03-05T17:30:54.433Z,47.23
2023-03-05T17:33:27.432Z,46.90
2023-03-05T17:36:00.885Z,47.27
2023-03-05T17:38:34.005Z,49.40
2023-03-05T17:41:07.394Z,44.60
2023-03-05T17:43:40.379Z,45.10
2023-03-05T17:46:13.612Z,44.10
2023-03-05T17:48:46.762Z,44.53
2023-03-05T17:51:19.541Z,45.30
2023-03-05T17:53:52.319Z,52.53
2023-03-05T17:56:26.840Z,55.93
2023-03-05T17:59:00.749Z,55.35
2023-03-05T18:01:34.992Z,53.93
2023-03-05T18:04:08.672Z,52.30
2023-03-05T18:06:41.546Z,50.87
2023-03-05T18:09:14.734Z,49.03
2023-03-05T18:11:47.927Z,49.50
2023-03-05T18:14:21.113Z,49.13
2023-03-05T18:16:58.655Z,48.03
2023-03-05T18:19:32.410Z,49.65
2023-03-05T18:22:05.607Z,48.50
2023-03-05T18:24:38.583Z,49.90
2023-03-05T18:27:11.982Z,49.65
2023-03-05T18:29:44.003Z,47.45
2023-03-05T18:32:17.561Z,48.02
2023-03-05T18:34:50.802Z,47.85
2023-03-05T18:37:23.714Z,49.30
2023-03-05T18:39:58.408Z,46.55
2023-03-05T18:42:31.934Z,45.05
2023-03-05T18:45:04.919Z,46.10
2023-03-05T18:47:39.159Z,45.10
2023-03-05T18:50:15.004Z,45.35
2023-03-05T18:52:48.186Z,46.10
2023-03-05T18:55:23.412Z,47.85
2023-03-05T18:57:57.010Z,47.77
2023-03-05T19:00:30.652Z,48.00
2023-03-05T19:03:06.946Z,49.35
2023-03-05T19:05:40.883Z,51.40
2023-03-05T19:08:13.870Z,49.90
2023-03-05T19:10:46.853Z,54.25
2023-03-05T19:13:36.837Z,53.50
2023-03-05T19:16:10.178Z,53.60
2023-03-05T19:19:09.845Z,55.05
2023-03-05T19:21:46.361Z,56.43
2023-03-05T19:24:19.222Z,59.40
2023-03-05T19:26:55.510Z,61.60
2023-03-05T19:29:33.099Z,59.70
2023-03-05T19:32:06.493Z,63.37
2023-03-05T19:34:39.625Z,63.80
2023-03-05T19:37:12.625Z,66.67
2023-03-05T19:39:46.006Z,68.23
2023-03-05T19:42:18.997Z,66.63
2023-03-05T19:44:51.164Z,69.33
2023-03-05T19:47:24.633Z,74.58
2023-03-05T19:49:57.950Z,74.95
2023-03-05T19:52:31.133Z,75.80
2023-03-05T19:55:04.332Z,79.05
2023-03-05T19:57:37.514Z,78.35
2023-03-05T20:00:11.995Z,81.07
2023-03-05T20:02:44.924Z,82.90
2023-03-05T20:05:18.798Z,83.15
2023-03-05T20:07:51.701Z,78.90
2023-03-05T20:10:25.105Z,77.85
2023-03-05T20:12:58.149Z,75.00
2023-03-05T20:15:30.865Z,74.65
2023-03-05T20:18:03.848Z,73.95
2023-03-05T20:20:37.035Z,78.65
2023-03-05T20:23:10.226Z,74.20
2023-03-05T20:25:43.419Z,75.07
2023-03-05T20:28:16.814Z,72.20
2023-03-05T20:30:54.223Z,75.00
2023-03-05T20:33:27.695Z,80.57
2023-03-05T20:36:01.706Z,79.57
2023-03-05T20:38:35.110Z,77.75
2023-03-05T20:41:09.930Z,76.80
2023-03-05T20:43:45.178Z,78.00
2023-03-05T20:46:19.030Z,77.05
2023-03-05T20:48:53.235Z,73.80
2023-03-05T20:51:26.790Z,75.70
2023-03-05T20:54:02.685Z,72.85
2023-03-05T20:56:36.235Z,75.30
2023-03-05T20:59:11.100Z,74.75
2023-03-05T21:01:44.508Z,72.65
2023-03-05T21:04:17.525Z,76.03
2023-03-05T21:06:53.298Z,75.50
2023-03-05T21:09:28.543Z,76.20
2023-03-05T21:12:01.520Z,77.75
2023-03-05T21:14:37.778Z,75.80
2023-03-05T21:17:10.973Z,71.75
2023-03-05T21:19:44.183Z,74.00
2023-03-05T21:22:17.142Z,72.15
2023-03-05T21:25:16.759Z,69.35
2023-03-05T21:27:50.556Z,66.75
2023-03-05T21:30:23.826Z,68.05
2023-03-05T21:32:58.184Z,67.60
2023-03-05T21:35:32.854Z,62.70
2023-03-05T21:38:07.006Z,61.20
2023-03-05T21:40:43.679Z,58.65
2023-03-05T21:43:17.700Z,56.90
2023-03-05T21:45:51.332Z,58.75
2023-03-05T21:48:24.470Z,56.00
2023-03-05T21:50:58.716Z,55.40
2023-03-05T21:53:31.664Z,51.90
2023-03-05T21:56:26.375Z,53.20
2023-03-05T21:58:58.933Z,49.33
2023-03-05T22:01:31.604Z,46.75
2023-03-05T22:04:04.941Z,43.95
2023-03-05T22:06:38.087Z,43.10
2023-03-05T22:09:11.276Z,42.15
2023-03-05T22:11:44.468Z,43.70
2023-03-05T22:14:18.094Z,39.55
2023-03-05T22:16:53.583Z,40.20
2023-03-05T22:19:26.290Z,34.63
2023-03-05T22:21:59.069Z,34.65
2023-03-05T22:24:31.901Z,30.55
2023-03-05T22:27:04.422Z,28.95
2023-03-05T22:32:08.596Z,21.70
2023-03-05T22:34:41.331Z,21.30
2023-03-05T22:37:14.723Z,19.75
2023-03-05T22:39:47.500Z,17.95
2023-03-05T22:42:20.078Z,18.95
2023-03-05T22:47:25.033Z,17.20
2023-03-05T22:49:57.469Z,16.95
2023-03-05T22:55:03.381Z,15.77
2023-03-05T22:57:36.140Z,16.20
2023-03-05T23:00:13.853Z,16.90
2023-03-05T23:02:46.622Z,15.95
2023-03-05T23:05:19.454Z,15.67
2023-03-05T23:07:53.001Z,16.83
2023-03-05T23:10:27.400Z,15.70
2023-03-05T23:13:01.637Z,16.75
2023-03-05T23:15:35.511Z,16.90
2023-03-05T23:18:09.249Z,16.43
2023-03-05T23:20:42.281Z,15.60
2023-03-05T23:23:15.220Z,16.07
2023-03-05T23:25:51.402Z,15.75
2023-03-05T23:28:24.269Z,15.35
2023-03-05T23:30:57.055Z,15.00
2023-03-05T23:33:30.461Z,14.45
2023-03-05T23:36:03.010Z,13.40
2023-03-05T23:38:37.016Z,15.35
2023-03-05T23:41:11.025Z,13.75
2023-03-05T23:43:44.214Z,15.15
2023-03-05T23:46:16.717Z,15.70
2023-03-05T23:48:49.565Z,15.55
2023-03-05T23:51:22.139Z,14.80
2023-03-05T23:53:54.714Z,16.75
2023-03-05T23:56:27.506Z,15.30
2023-03-05T23:59:01.919Z,14.27
